Time;durP1;ratioP1;P1;durP2;ratioP2;P2;SDS_P1;SDS_P2;PMS_P1;PMS_P2;Temp;Humidity;BMP_temperature;BMP_pressure;BME280_temperature;BME280_humidity;BME280_pressure;Samples;Min_cycle;Max_cycle;Signal;HPM_P1;HPM_P2
2022/09/05 00:01:27;;;;;;;6.43;4.82;;;15.90;99.90;;;;;;2603626;54;20046;31
2022/09/05 00:04:06;;;;;;;8.20;4.55;;;15.80;99.90;;;;;;2603264;54;20034;31
2022/09/05 00:07:01;;;;;;;7.47;4.50;;;15.90;99.90;;;;;;2603539;54;20886;31
2022/09/05 00:09:57;;;;;;;5.95;4.50;;;15.90;99.90;;;;;;2622096;46;20337;31
2022/09/05 00:12:32;;;;;;;6.75;4.60;;;15.90;99.90;;;;;;2622434;46;20069;31
2022/09/05 00:15:17;;;;;;;6.85;4.40;;;15.90;99.90;;;;;;2621839;46;21019;31
2022/09/05 00:18:09;;;;;;;9.30;5.38;;;15.90;99.90;;;;;;2603713;54;20030;31
2022/09/05 00:21:08;;;;;;;10.43;5.65;;;15.90;99.90;;;;;;2603611;54;20920;31
2022/09/05 00:24:01;;;;;;;5.63;4.93;;;15.90;99.90;;;;;;2603680;54;20866;31
2022/09/05 00:27:01;;;;;;;6.68;5.00;;;15.90;99.90;;;;;;2603487;54;20867;31
2022/09/05 00:29:44;;;;;;;6.82;4.93;;;15.80;99.90;;;;;;2621934;46;19935;31
2022/09/05 00:32:56;;;;;;;7.53;5.63;;;15.80;99.90;;;;;;2603428;54;20901;31
2022/09/05 00:35:30;;;;;;;6.25;4.97;;;15.80;99.90;;;;;;2603619;54;20081;31
2022/09/05 00:38:13;;;;;;;6.88;5.00;;;15.80;99.90;;;;;;2603366;54;20952;31
2022/09/05 00:40:47;;;;;;;5.57;4.97;;;15.70;99.90;;;;;;2603361;54;20968;31
2022/09/05 00:43:26;;;;;;;8.45;5.60;;;15.70;99.90;;;;;;2603402;54;20023;31
2022/09/05 00:46:01;;;;;;;7.68;6.15;;;15.70;99.90;;;;;;2621894;46;20033;31
2022/09/05 00:48:38;;;;;;;6.97;5.57;;;15.60;99.90;;;;;;2621964;46;20031;31
2022/09/05 00:51:28;;;;;;;6.35;5.28;;;15.60;99.90;;;;;;2603509;54;20889;31
2022/09/05 00:54:26;;;;;;;6.37;5.70;;;15.60;99.90;;;;;;2603228;54;20755;31
2022/09/05 00:57:30;;;;;;;7.28;6.13;;;15.60;99.90;;;;;;2701759;39;20715;31
2022/09/05 01:00:12;;;;;;;6.00;5.25;;;15.50;99.90;;;;;;2603547;54;20061;31
2022/09/05 01:03:09;;;;;;;7.45;5.60;;;15.50;99.90;;;;;;2603291;54;20848;31
2022/09/05 01:05:53;;;;;;;6.47;5.28;;;15.50;99.90;;;;;;2622325;46;20905;31
2022/09/05 01:08:43;;;;;;;6.15;5.35;;;15.50;99.90;;;;;;2603691;54;20818;31
2022/09/05 01:11:21;;;;;;;6.25;5.20;;;15.50;99.90;;;;;;2603627;54;20074;31
2022/09/05 01:13:59;;;;;;;6.15;4.90;;;15.40;99.90;;;;;;2603398;54;20050;31
2022/09/05 01:16:38;;;;;;;7.78;5.78;;;15.40;99.90;;;;;;2603479;54;20874;31
2022/09/05 01:19:20;;;;;;;8.55;6.05;;;15.30;99.90;;;;;;2603256;54;20029;31
2022/09/05 01:22:09;;;;;;;7.28;5.03;;;15.30;99.90;;;;;;2603552;54;20874;31
2022/09/05 01:24:56;;;;;;;8.27;5.43;;;15.30;99.90;;;;;;2603557;54;20033;31
2022/09/05 01:27:50;;;;;;;6.20;4.97;;;15.30;99.90;;;;;;2603562;54;20892;31
2022/09/05 01:30:46;;;;;;;7.80;5.03;;;15.20;99.90;;;;;;2603489;54;20065;31
2022/09/05 01:33:24;;;;;;;7.28;5.68;;;15.20;99.90;;;;;;2603490;54;20124;31
2022/09/05 01:36:12;;;;;;;7.25;5.82;;;15.20;99.90;;;;;;2603505;54;20030;31
2022/09/05 01:38:46;;;;;;;9.37;6.33;;;15.20;99.90;;;;;;2603356;54;19934;31
2022/09/05 01:41:42;;;;;;;7.22;5.95;;;15.20;99.90;;;;;;2603206;54;20031;31
2022/09/05 01:44:28;;;;;;;6.97;6.22;;;15.20;99.90;;;;;;2603316;54;20085;31
2022/09/05 01:47:09;;;;;;;6.47;5.43;;;15.20;99.90;;;;;;2701830;39;20537;31
2022/09/05 01:49:55;;;;;;;6.60;5.88;;;15.10;99.90;;;;;;2701842;39;20574;31
2022/09/05 01:52:47;;;;;;;6.13;5.53;;;15.20;99.90;;;;;;2720564;39;21454;31
2022/09/05 01:55:46;;;;;;;7.80;6.63;;;15.10;99.90;;;;;;2603093;54;20023;31
2022/09/05 01:58:48;;;;;;;9.50;7.45;;;15.10;99.90;;;;;;2603151;54;20745;31
2022/09/05 02:01:29;;;;;;;9.05;6.25;;;15.10;99.90;;;;;;2603253;54;20827;31
2022/09/05 02:04:27;;;;;;;6.97;5.97;;;15.00;99.90;;;;;;2621747;46;20030;31
2022/09/05 02:06:59;;;;;;;7.80;6.13;;;15.00;99.90;;;;;;2603362;54;20065;31
2022/09/05 02:10:09;;;;;;;7.07;6.35;;;15.00;99.90;;;;;;2603455;54;20145;31
2022/09/05 02:12:45;;;;;;;8.43;5.50;;;15.00;99.90;;;;;;2603137;54;20105;31
2022/09/05 02:15:42;;;;;;;7.05;6.22;;;15.10;99.90;;;;;;2603078;54;20034;31
2022/09/05 02:18:43;;;;;;;;;;;15.00;99.90;;;;;;2603435;54;20076;31
2022/09/05 02:21:23;;;;;;;7.65;5.40;;;15.00;99.90;;;;;;2603421;54;20769;31
2022/09/05 02:24:04;;;;;;;7.30;6.35;;;14.90;99.90;;;;;;2603145;54;20089;31
2022/09/05 02:26:44;;;;;;;5.68;5.13;;;14.90;99.90;;;;;;2702210;39;20560;31
2022/09/05 02:29:21;;;;;;;10.40;6.30;;;14.90;99.90;;;;;;2604038;54;19934;31
2022/09/05 02:32:03;;;;;;;7.15;6.43;;;14.90;99.90;;;;;;2604030;54;20033;31
2022/09/05 02:34:42;;;;;;;6.35;5.60;;;14.90;99.90;;;;;;2603932;54;20026;31
2022/09/05 02:37:20;;;;;;;7.18;6.32;;;14.80;99.90;;;;;;2603784;54;20013;31
2022/09/05 02:40:18;;;;;;;7.50;5.82;;;14.80;99.90;;;;;;2604031;54;20023;31
2022/09/05 02:43:19;;;;;;;8.07;6.43;;;14.80;99.90;;;;;;2622665;46;20766;31
2022/09/05 02:46:16;;;;;;;9.60;6.30;;;14.80;99.90;;;;;;2702488;39;20501;31
2022/09/05 02:48:54;;;;;;;6.97;5.63;;;14.80;99.90;;;;;;2603787;54;20106;31
2022/09/05 02:51:34;;;;;;;12.25;7.07;;;14.70;99.90;;;;;;2622213;46;20874;31
2022/09/05 02:54:30;;;;;;;9.23;5.70;;;14.70;99.90;;;;;;2622496;46;19935;31
2022/09/05 02:57:35;;;;;;;10.10;7.83;;;14.70;99.90;;;;;;2603788;54;20823;31
2022/09/05 03:00:30;;;;;;;5.90;5.30;;;14.60;99.90;;;;;;2621995;46;20045;31
2022/09/05 03:03:14;;;;;;;7.70;6.93;;;14.60;99.90;;;;;;2603821;54;20037;31
2022/09/05 03:05:51;;;;;;;9.65;7.25;;;14.60;99.90;;;;;;2604030;54;20875;31
2022/09/05 03:08:43;;;;;;;8.73;6.70;;;14.60;99.90;;;;;;2604162;54;20034;31
2022/09/05 03:11:45;;;;;;;8.25;7.13;;;14.50;99.90;;;;;;2604079;54;20085;31
2022/09/05 03:14:49;;;;;;;9.27;7.07;;;14.50;99.90;;;;;;2603727;54;20105;31
2022/09/05 03:17:56;;;;;;;7.47;6.73;;;14.50;99.90;;;;;;2603811;54;20775;31
2022/09/05 03:21:19;;;;;;;9.33;7.10;;;14.40;99.90;;;;;;2603949;54;20250;31
2022/09/05 03:24:19;;;;;;;10.60;7.00;;;14.30;99.90;;;;;;2773873;31;20847;31
2022/09/05 03:27:10;;;;;;;8.88;7.22;;;14.30;99.90;;;;;;2604024;54;20072;31
2022/09/05 03:30:10;;;;;;;8.85;7.20;;;14.30;99.90;;;;;;2603853;54;20030;31
2022/09/05 03:33:23;;;;;;;6.40;5.80;;;14.30;99.90;;;;;;2622554;46;20085;31
2022/09/05 03:36:27;;;;;;;11.45;7.00;;;14.30;99.90;;;;;;2622017;46;20828;31
2022/09/05 03:39:26;;;;;;;7.83;7.03;;;14.30;99.90;;;;;;2603420;54;20914;31
2022/09/05 03:42:10;;;;;;;9.00;6.73;;;14.20;99.90;;;;;;2622207;46;20035;31
2022/09/05 03:44:55;;;;;;;8.68;6.30;;;14.20;99.90;;;;;;2603773;54;21329;31
2022/09/05 03:47:40;;;;;;;7.07;6.32;;;14.20;99.90;;;;;;2603662;54;20901;31
2022/09/05 03:50:37;;;;;;;7.82;5.45;;;14.20;99.90;;;;;;2603755;54;20026;31
2022/09/05 03:53:44;;;;;;;10.90;6.90;;;14.10;99.90;;;;;;2622278;46;20033;31
2022/09/05 03:56:59;;;;;;;10.55;6.97;;;14.10;99.90;;;;;;2603814;54;20832;31
2022/09/05 03:59:52;;;;;;;7.53;6.85;;;14.10;99.90;;;;;;2603626;54;20028;31
2022/09/05 04:02:28;;;;;;;9.95;6.90;;;14.10;99.90;;;;;;2603585;54;20120;31
2022/09/05 04:05:25;;;;;;;9.93;7.30;;;14.10;99.90;;;;;;2603571;54;20050;31
2022/09/05 04:08:18;;;;;;;9.65;6.95;;;14.00;99.90;;;;;;2603726;54;20052;31
2022/09/05 04:11:10;;;;;;;8.40;7.03;;;14.10;99.90;;;;;;2603881;54;20816;31
2022/09/05 04:13:51;;;;;;;8.97;6.87;;;14.10;99.90;;;;;;2603545;54;20089;31
2022/09/05 04:16:27;;;;;;;7.30;6.30;;;14.10;99.90;;;;;;2603561;54;20098;31
2022/09/05 04:19:08;;;;;;;;;;;14.10;99.90;;;;;;2603638;54;20030;31
2022/09/05 04:21:47;;;;;;;7.50;6.70;;;14.10;99.90;;;;;;2622019;46;19934;31
2022/09/05 04:24:27;;;;;;;6.65;5.40;;;14.10;99.90;;;;;;2621597;46;20108;31
2022/09/05 04:27:18;;;;;;;7.95;7.15;;;14.10;99.90;;;;;;2603586;54;20891;31
2022/09/05 04:30:00;;;;;;;8.25;7.07;;;14.10;99.90;;;;;;2720207;39;22371;31
2022/09/05 04:32:57;;;;;;;7.43;6.72;;;14.10;99.90;;;;;;2603603;54;20034;31
2022/09/05 04:35:36;;;;;;;9.30;7.07;;;14.20;99.90;;;;;;2603581;54;20027;31
2022/09/05 04:38:14;;;;;;;9.07;6.57;;;14.20;99.90;;;;;;2603503;54;20026;31
2022/09/05 04:40:59;;;;;;;7.45;6.63;;;14.10;99.90;;;;;;2603483;54;20831;31
2022/09/05 04:43:36;;;;;;;11.20;5.83;;;14.30;99.90;;;;;;2603413;54;20093;31
2022/09/05 04:46:17;;;;;;;8.33;6.60;;;14.30;99.90;;;;;;2603403;54;20729;31
2022/09/05 04:48:57;;;;;;;10.13;6.22;;;14.30;99.90;;;;;;2603250;54;20246;31
2022/09/05 04:51:33;;;;;;;7.95;7.15;;;14.40;99.90;;;;;;2603275;54;20089;31
2022/09/05 04:54:38;;;;;;;8.90;6.75;;;14.50;99.90;;;;;;2603322;54;20050;31
2022/09/05 04:57:19;;;;;;;8.40;6.90;;;14.50;99.90;;;;;;2603345;54;20030;31
2022/09/05 04:59:59;;;;;;;10.80;7.65;;;14.60;99.90;;;;;;2603423;54;20038;31
2022/09/05 05:02:57;;;;;;;11.40;7.20;;;14.60;99.90;;;;;;2603313;54;20026;31
2022/09/05 05:05:58;;;;;;;15.50;12.30;;;14.60;99.90;;;;;;2603174;54;20057;31
2022/09/05 05:08:54;;;;;;;9.40;8.30;;;14.70;99.90;;;;;;2603411;54;20022;31
2022/09/05 05:11:45;;;;;;;9.25;7.35;;;14.70;99.90;;;;;;2621700;46;20085;31
2022/09/05 05:17:34;;;;;;;9.00;6.25;;;14.80;99.90;;;;;;2603508;54;20081;31
2022/09/05 05:20:33;;;;;;;12.43;9.07;;;14.80;99.90;;;;;;2603274;54;20116;31
2022/09/05 05:23:16;;;;;;;9.90;7.53;;;14.80;99.90;;;;;;2621703;46;20033;31
2022/09/05 05:25:53;;;;;;;12.85;7.28;;;14.90;99.90;;;;;;2621840;46;20089;31
2022/09/05 05:28:29;;;;;;;9.70;7.32;;;14.90;99.90;;;;;;2621499;46;20064;31
2022/09/05 05:31:11;;;;;;;7.13;6.15;;;14.90;99.90;;;;;;2603075;54;20033;31
2022/09/05 05:33:48;;;;;;;10.65;7.05;;;15.00;99.90;;;;;;2603202;54;20038;31
2022/09/05 05:36:26;;;;;;;10.77;6.50;;;15.00;99.90;;;;;;2603396;54;20105;31
2022/09/05 05:39:02;;;;;;;9.35;6.75;;;15.10;99.90;;;;;;2603320;54;20023;31
2022/09/05 05:41:36;;;;;;;8.80;7.03;;;15.20;99.90;;;;;;2603362;54;20130;31
2022/09/05 05:44:14;;;;;;;7.40;6.60;;;15.30;99.90;;;;;;2603126;54;20557;31
2022/09/05 05:46:55;;;;;;;10.20;6.47;;;15.50;99.90;;;;;;2603172;54;20037;31
2022/09/05 05:49:48;;;;;;;9.32;5.90;;;15.70;99.90;;;;;;2603186;54;20909;31
2022/09/05 05:52:46;;;;;;;9.55;5.20;;;16.00;99.90;;;;;;2621857;46;20033;31
2022/09/05 05:55:38;;;;;;;7.97;5.72;;;16.30;99.90;;;;;;2603380;54;20924;31
2022/09/05 05:58:41;;;;;;;8.27;6.35;;;16.70;99.90;;;;;;2621818;46;20900;31
2022/09/05 06:01:45;;;;;;;6.07;5.47;;;17.10;99.90;;;;;;2603135;54;20034;31
2022/09/05 06:04:43;;;;;;;7.40;5.15;;;17.40;99.90;;;;;;2602963;54;20033;31
2022/09/05 06:07:24;;;;;;;6.95;5.45;;;17.60;99.90;;;;;;2603109;54;20860;31
2022/09/05 06:10:37;;;;;;;7.95;5.72;;;17.80;99.90;;;;;;2603018;54;20046;31
2022/09/05 06:14:07;;;;;;;6.00;5.20;;;18.00;99.90;;;;;;2603113;54;20863;31
2022/09/05 06:17:44;;;;;;;8.53;5.27;;;18.00;99.90;;;;;;2603066;54;20745;31
2022/09/05 06:20:51;;;;;;;6.35;5.22;;;18.20;99.90;;;;;;2603005;54;20933;31
2022/09/05 06:26:48;;;;;;;7.22;5.22;;;18.30;99.90;;;;;;2621043;47;20053;31
2022/09/05 06:29:30;;;;;;;10.38;6.13;;;18.30;99.90;;;;;;2602963;54;20888;31
2022/09/05 06:32:23;;;;;;;7.13;5.15;;;18.30;99.90;;;;;;2603353;54;20030;31
2022/09/05 06:35:17;;;;;;;10.73;9.23;;;18.40;99.90;;;;;;2603078;54;20037;31
2022/09/05 06:37:58;;;;;;;10.90;7.90;;;18.40;99.90;;;;;;2603068;54;20145;31
2022/09/05 06:40:34;;;;;;;15.90;6.80;;;18.70;99.90;;;;;;2603048;54;20058;31
2022/09/05 06:43:15;;;;;;;9.98;6.47;;;19.00;99.90;;;;;;2602932;54;20758;31
2022/09/05 06:46:07;;;;;;;9.80;5.82;;;19.40;99.90;;;;;;2603059;54;20856;31
2022/09/05 06:48:46;;;;;;;5.53;5.00;;;19.70;99.90;;;;;;2603340;54;20869;31
2022/09/05 06:52:02;;;;;;;6.43;4.87;;;19.90;99.90;;;;;;2602927;54;20026;31
2022/09/05 06:55:16;;;;;;;6.87;4.60;;;20.10;99.90;;;;;;2602918;54;20026;31
2022/09/05 06:58:25;;;;;;;9.27;4.63;;;20.40;99.90;;;;;;2602864;54;20927;31
2022/09/05 07:01:00;;;;;;;7.25;4.72;;;20.70;99.90;;;;;;2602906;54;20022;31
2022/09/05 07:04:15;;;;;;;7.45;4.63;;;20.90;99.90;;;;;;2602836;54;20851;31
2022/09/05 07:07:16;;;;;;;4.70;3.93;;;21.10;99.90;;;;;;2602700;54;20042;31
2022/09/05 07:09:59;;;;;;;6.07;4.43;;;21.50;99.90;;;;;;2602995;54;20034;31
2022/09/05 07:12:48;;;;;;;6.13;4.50;;;21.70;99.90;;;;;;2603157;54;20104;31
2022/09/05 07:15:33;;;;;;;4.90;4.40;;;21.90;99.90;;;;;;2603759;54;20569;31
2022/09/05 07:18:12;;;;;;;7.57;4.10;;;21.90;99.90;;;;;;2603552;54;20074;31
2022/09/05 07:20:50;;;;;;;7.18;4.22;;;21.90;99.90;;;;;;2603671;54;20052;31
2022/09/05 07:23:45;;;;;;;6.93;4.57;;;21.90;99.90;;;;;;2603374;54;20960;31
2022/09/05 07:26:44;;;;;;;5.30;4.15;;;21.90;99.90;;;;;;2603595;54;20913;31
2022/09/05 07:29:29;;;;;;;5.90;4.55;;;22.20;99.90;;;;;;2603741;54;19935;31
2022/09/05 07:32:05;;;;;;;10.07;5.43;;;22.40;99.90;;;;;;2603815;54;20035;31
2022/09/05 07:34:40;;;;;;;9.20;3.95;;;22.60;99.90;;;;;;2603569;54;20033;31
2022/09/05 07:37:18;;;;;;;10.23;4.20;;;22.90;99.90;;;;;;2603614;54;20030;31
2022/09/05 07:39:53;;;;;;;4.73;4.00;;;23.00;99.90;;;;;;2603834;54;20031;31
2022/09/05 07:42:32;;;;;;;;;;;23.10;99.90;;;;;;2603824;54;20915;31
2022/09/05 07:45:10;;;;;;;5.43;3.80;;;23.20;99.90;;;;;;2603613;54;20489;31
2022/09/05 07:47:47;;;;;;;6.22;4.13;;;23.40;99.90;;;;;;2603512;54;20109;31
2022/09/05 07:50:22;;;;;;;8.05;4.07;;;23.40;99.90;;;;;;2603489;54;20554;31
2022/09/05 07:53:18;;;;;;;5.97;3.83;;;23.50;99.90;;;;;;2603715;54;20035;31
2022/09/05 07:56:13;;;;;;;;;;;23.70;99.90;;;;;;2603832;54;20254;31
2022/09/05 07:59:12;;;;;;;4.60;3.80;;;23.70;99.90;;;;;;2622097;46;19969;31
2022/09/05 08:01:49;;;;;;;7.20;4.20;;;23.60;99.90;;;;;;2603714;54;20846;31
2022/09/05 08:04:28;;;;;;;8.80;3.70;;;23.80;99.90;;;;;;2603753;54;20026;31
2022/09/05 08:07:04;;;;;;;5.22;3.67;;;23.90;99.90;;;;;;2603437;54;20803;31
2022/09/05 08:10:00;;;;;;;4.40;3.40;;;24.00;99.90;;;;;;2603729;54;20026;31
2022/09/05 08:12:44;;;;;;;4.75;3.40;;;24.00;99.90;;;;;;2603410;54;20105;31
2022/09/05 08:15:46;;;;;;;8.20;4.22;;;24.20;99.90;;;;;;2603311;54;20932;31
2022/09/05 08:18:43;;;;;;;6.25;3.28;;;24.40;99.90;;;;;;2603696;54;20900;31
2022/09/05 08:21:22;;;;;;;6.03;3.58;;;24.30;99.90;;;;;;2621968;46;20033;31
2022/09/05 08:24:04;;;;;;;3.83;3.42;;;24.40;99.90;;;;;;2603152;54;20755;31
2022/09/05 08:26:48;;;;;;;6.80;3.65;;;24.60;99.90;;;;;;2603536;54;20030;31
2022/09/05 08:29:30;;;;;;;4.70;3.33;;;24.80;99.90;;;;;;2603581;54;20035;31
2022/09/05 08:32:09;;;;;;;5.55;3.40;;;24.80;99.90;;;;;;2603476;54;20085;31
2022/09/05 08:34:45;;;;;;;4.95;4.03;;;24.80;99.90;;;;;;2603691;54;20871;31
2022/09/05 08:37:19;;;;;;;;;;;24.80;99.90;;;;;;2603645;54;20830;31
2022/09/05 08:39:55;;;;;;;7.32;3.38;;;24.70;99.90;;;;;;2621735;46;19942;31
2022/09/05 08:42:48;;;;;;;4.93;3.07;;;24.80;99.90;;;;;;2603497;54;20048;31
2022/09/05 08:45:44;;;;;;;6.07;3.70;;;25.00;99.90;;;;;;2621756;46;19942;31
2022/09/05 08:49:04;;;;;;;5.25;3.10;;;25.10;99.90;;;;;;2603343;54;20878;31
2022/09/05 08:51:43;;;;;;;;;;;25.30;99.90;;;;;;2603569;54;20061;31
2022/09/05 08:54:32;;;;;;;4.85;3.60;;;25.30;99.90;;;;;;2622102;46;19985;31
2022/09/05 08:57:12;;;;;;;4.23;3.13;;;25.40;99.90;;;;;;2621614;46;20031;31
2022/09/05 08:59:47;;;;;;;8.85;3.30;;;25.50;99.90;;;;;;2603521;54;20034;31
2022/09/05 09:02:58;;;;;;;4.80;3.47;;;25.40;99.90;;;;;;2621999;46;20026;31
2022/09/05 09:06:02;;;;;;;4.75;3.38;;;25.60;99.90;;;;;;2603432;54;20239;31
2022/09/05 09:09:06;;;;;;;5.57;3.28;;;25.80;99.90;;;;;;2621850;46;20886;31
2022/09/05 09:11:42;;;;;;;7.00;3.78;;;26.00;99.90;;;;;;2603596;54;20035;31
2022/09/05 09:14:37;;;;;;;4.35;3.00;;;25.80;99.90;;;;;;2603353;54;20737;31
2022/09/05 09:17:29;;;;;;;4.00;3.05;;;25.90;99.90;;;;;;2603144;54;20050;31
2022/09/05 09:20:16;;;;;;;5.47;2.95;;;25.90;99.90;;;;;;2603469;54;20888;31
2022/09/05 09:23:10;;;;;;;4.35;2.85;;;25.90;99.90;;;;;;2621503;46;20859;31
2022/09/05 09:26:04;;;;;;;5.38;2.90;;;25.80;99.90;;;;;;2603432;54;20971;31
2022/09/05 09:29:05;;;;;;;4.45;3.28;;;25.80;99.90;;;;;;2603564;54;20902;31
2022/09/05 09:31:53;;;;;;;6.20;3.37;;;25.70;99.90;;;;;;2603091;54;20033;31
2022/09/05 09:34:46;;;;;;;5.50;3.30;;;25.90;99.90;;;;;;2621899;46;20924;31
2022/09/05 09:37:55;;;;;;;3.50;2.97;;;25.90;99.90;;;;;;2603409;54;20083;31
2022/09/05 09:40:48;;;;;;;2.65;2.45;;;25.80;99.90;;;;;;2701653;39;20458;31
2022/09/05 09:43:50;;;;;;;6.70;3.00;;;26.00;99.90;;;;;;2603118;54;20803;31
2022/09/05 09:46:29;;;;;;;5.70;2.90;;;25.80;99.90;;;;;;2621676;46;20072;31
2022/09/05 09:49:19;;;;;;;8.98;3.00;;;25.80;99.90;;;;;;2603243;54;20061;31
2022/09/05 09:51:55;;;;;;;8.75;3.03;;;25.90;99.90;;;;;;2603341;54;20022;31
2022/09/05 09:55:01;;;;;;;3.20;2.63;;;25.90;99.90;;;;;;2622016;46;20022;31
2022/09/05 09:58:06;;;;;;;5.13;2.97;;;25.80;99.90;;;;;;2603210;54;20130;31
2022/09/05 10:00:50;;;;;;;6.47;2.85;;;25.90;99.90;;;;;;2719923;39;20501;31
2022/09/05 10:03:33;;;;;;;5.03;2.90;;;25.80;99.90;;;;;;2603170;54;20902;31
2022/09/05 10:06:45;;;;;;;4.10;2.90;;;25.70;99.90;;;;;;2603236;54;20026;31
2022/09/05 10:09:48;;;;;;;3.65;2.40;;;25.60;99.90;;;;;;2621515;46;20049;31
2022/09/05 10:13:05;;;;;;;3.20;2.50;;;25.60;99.90;;;;;;2603030;54;20195;31
2022/09/05 10:15:48;;;;;;;5.53;3.03;;;25.70;99.90;;;;;;2603200;54;20030;31
2022/09/05 10:18:45;;;;;;;3.67;2.60;;;25.60;99.90;;;;;;2621998;46;20864;31
2022/09/05 10:21:34;;;;;;;4.63;2.65;;;25.50;99.90;;;;;;2602866;54;20030;31
2022/09/05 10:24:21;;;;;;;7.72;3.05;;;25.30;99.90;;;;;;2602980;54;21009;31
2022/09/05 10:27:16;;;;;;;2.72;2.45;;;25.00;99.90;;;;;;2602950;54;20910;31
2022/09/05 10:30:11;;;;;;;4.50;3.00;;;24.80;99.90;;;;;;2701756;39;20457;31
2022/09/05 10:32:51;;;;;;;7.47;3.03;;;24.80;99.90;;;;;;2621556;47;20038;31
2022/09/05 10:35:49;;;;;;;5.07;2.92;;;24.80;99.90;;;;;;2603011;54;20935;31
2022/09/05 10:38:31;;;;;;;5.28;2.85;;;24.60;99.90;;;;;;2602996;54;20827;31
2022/09/05 10:41:05;;;;;;;3.45;2.45;;;24.60;99.90;;;;;;2621841;47;20026;31
2022/09/05 10:44:01;;;;;;;4.80;3.13;;;24.70;99.90;;;;;;2603050;54;20058;31
2022/09/05 10:46:44;;;;;;;5.57;2.95;;;24.80;99.90;;;;;;2603216;54;20026;31
2022/09/05 10:49:26;;;;;;;3.65;2.80;;;24.80;99.90;;;;;;2603937;54;20701;31
2022/09/05 10:52:04;;;;;;;3.30;2.40;;;24.80;99.90;;;;;;2603858;54;20561;31
2022/09/05 10:54:51;;;;;;;7.57;2.67;;;24.80;99.90;;;;;;2622490;46;20036;31
2022/09/05 10:58:00;;;;;;;4.55;2.42;;;24.80;99.90;;;;;;2603762;54;20937;31
2022/09/05 11:01:01;;;;;;;4.18;2.75;;;24.80;99.90;;;;;;2603655;54;20949;31
2022/09/05 11:04:03;;;;;;;3.30;2.60;;;24.90;99.90;;;;;;2603666;54;20894;31
2022/09/05 11:06:56;;;;;;;3.88;2.75;;;24.80;99.90;;;;;;2622097;46;20076;31
2022/09/05 11:09:39;;;;;;;3.15;2.75;;;24.70;99.90;;;;;;2603903;54;20578;31
2022/09/05 11:12:28;;;;;;;4.70;2.35;;;24.60;99.90;;;;;;2603853;54;20563;31
2022/09/05 11:15:03;;;;;;;5.55;2.33;;;24.50;99.90;;;;;;2603681;54;20026;31
2022/09/05 11:17:41;;;;;;;3.15;2.45;;;24.60;99.90;;;;;;2622132;46;20046;31
2022/09/05 11:20:40;;;;;;;5.43;2.50;;;24.70;99.90;;;;;;2603961;54;20030;31
2022/09/05 11:23:19;;;;;;;2.75;1.95;;;24.70;99.90;;;;;;2622342;46;20242;31
2022/09/05 11:26:02;;;;;;;2.40;2.20;;;24.80;99.90;;;;;;2603843;54;20052;31
2022/09/05 11:28:42;;;;;;;4.43;2.20;;;24.80;99.90;;;;;;2621803;46;20821;31
2022/09/05 11:31:32;;;;;;;3.88;2.67;;;24.90;99.90;;;;;;2702292;39;20585;31
2022/09/05 11:34:49;;;;;;;3.88;2.22;;;24.80;99.90;;;;;;2603687;54;20909;31
2022/09/05 11:38:15;;;;;;;3.30;2.00;;;24.80;99.90;;;;;;2603656;54;20836;31
2022/09/05 11:41:22;;;;;;;3.15;2.03;;;24.80;99.90;;;;;;2603571;54;20023;31
2022/09/05 11:44:00;;;;;;;4.15;2.10;;;24.90;99.90;;;;;;2603557;54;20584;31
2022/09/05 11:47:27;;;;;;;2.42;2.22;;;24.90;99.90;;;;;;2603934;54;20026;31
2022/09/05 11:50:30;;;;;;;4.20;2.20;;;24.80;99.50;;;;;;2603626;54;20744;31
2022/09/05 11:53:33;;;;;;;4.07;2.10;;;24.70;99.00;;;;;;2603653;54;20027;31
2022/09/05 11:56:31;;;;;;;4.43;2.25;;;24.60;99.30;;;;;;2702487;39;21031;31
2022/09/05 11:59:36;;;;;;;3.80;1.92;;;24.50;98.80;;;;;;2603759;54;20037;31
2022/09/05 12:02:32;;;;;;;5.57;2.20;;;24.60;99.00;;;;;;2622377;46;20042;31
2022/09/05 12:05:29;;;;;;;2.10;1.90;;;24.50;99.60;;;;;;2603492;54;20759;31
2022/09/05 12:08:23;;;;;;;6.90;2.60;;;24.50;99.40;;;;;;2603440;54;20057;31
2022/09/05 12:11:12;;;;;;;5.07;1.98;;;24.60;99.10;;;;;;2603514;54;20031;31
2022/09/05 12:13:49;;;;;;;3.33;2.10;;;24.70;98.90;;;;;;2603662;54;20954;31
2022/09/05 12:16:44;;;;;;;5.25;1.75;;;24.70;98.70;;;;;;2622157;46;20027;31
2022/09/05 12:19:25;;;;;;;2.50;1.80;;;24.60;98.60;;;;;;2603741;54;20033;31
2022/09/05 12:22:31;;;;;;;3.95;2.05;;;24.50;98.90;;;;;;2603358;54;20243;31
2022/09/05 12:25:47;;;;;;;4.07;2.10;;;24.60;99.40;;;;;;2603269;54;20023;31
2022/09/05 12:28:47;;;;;;;3.20;2.13;;;24.70;99.60;;;;;;2603314;54;19934;31
2022/09/05 12:31:43;;;;;;;4.90;2.20;;;24.70;99.80;;;;;;2603431;54;20030;31
2022/09/05 12:34:50;;;;;;;3.27;2.10;;;24.60;99.70;;;;;;2603401;54;20940;31
2022/09/05 12:37:48;;;;;;;2.85;2.20;;;24.60;99.60;;;;;;2603390;54;20872;31
2022/09/05 12:40:45;;;;;;;3.65;2.10;;;24.60;99.90;;;;;;2603498;54;20057;31
2022/09/05 12:43:44;;;;;;;4.95;2.30;;;24.60;99.70;;;;;;2622206;46;20974;31
2022/09/05 12:46:51;;;;;;;2.92;2.00;;;24.40;99.80;;;;;;2603510;54;20599;31
2022/09/05 12:49:33;;;;;;;7.55;2.95;;;24.50;99.70;;;;;;2603619;54;20030;31
2022/09/05 12:52:08;;;;;;;3.20;2.00;;;24.30;98.90;;;;;;2701857;39;20548;31
2022/09/05 12:54:47;;;;;;;6.33;2.50;;;24.20;99.00;;;;;;2603446;54;25053;31
2022/09/05 12:57:26;;;;;;;2.25;1.80;;;24.20;99.70;;;;;;2621920;46;20127;31
2022/09/05 13:00:22;;;;;;;3.60;2.00;;;24.10;99.70;;;;;;2621811;46;20031;31
2022/09/05 13:03:23;;;;;;;6.85;2.47;;;24.00;99.30;;;;;;2621279;46;20026;31
2022/09/05 13:06:07;;;;;;;5.45;3.20;;;23.90;99.80;;;;;;2603237;54;20847;31
2022/09/05 13:08:46;;;;;;;6.10;1.98;;;23.80;99.80;;;;;;2621733;46;20104;31
2022/09/05 13:11:36;;;;;;;3.85;2.08;;;23.80;99.50;;;;;;2603088;54;20838;31
2022/09/05 13:14:35;;;;;;;3.38;2.58;;;23.80;99.70;;;;;;2603190;54;20026;31
2022/09/05 13:17:35;;;;;;;5.80;2.00;;;23.60;99.70;;;;;;2603289;54;20748;31
2022/09/05 13:20:24;;;;;;;5.35;2.20;;;23.50;99.70;;;;;;2621735;46;20029;31
2022/09/05 13:22:56;;;;;;;7.75;2.15;;;23.50;99.80;;;;;;2603273;54;20034;31
2022/09/05 13:25:31;;;;;;;2.85;2.00;;;23.50;99.90;;;;;;2603268;54;20157;31
2022/09/05 13:28:07;;;;;;;2.40;1.70;;;23.50;99.90;;;;;;2603366;54;20596;31
2022/09/05 13:30:51;;;;;;;2.37;1.97;;;23.50;99.90;;;;;;2621873;46;20023;31
2022/09/05 13:33:47;;;;;;;3.13;2.07;;;23.50;99.70;;;;;;2603218;54;20847;31
2022/09/05 13:36:49;;;;;;;4.20;2.17;;;23.30;99.60;;;;;;2603446;54;21046;31
2022/09/05 13:39:50;;;;;;;5.35;2.10;;;23.50;99.90;;;;;;2603224;54;20749;31
2022/09/05 13:42:25;;;;;;;2.35;1.90;;;23.50;99.90;;;;;;2621741;46;20030;31
2022/09/05 13:45:00;;;;;;;5.57;1.98;;;23.50;99.70;;;;;;2603255;54;20108;31
2022/09/05 13:47:49;;;;;;;6.90;1.67;;;23.40;99.90;;;;;;2603456;54;20034;31
2022/09/05 13:50:27;;;;;;;3.58;2.38;;;23.50;99.90;;;;;;2603335;54;20160;31
2022/09/05 13:53:06;;;;;;;3.95;2.20;;;23.60;99.90;;;;;;2603162;54;20125;31
2022/09/05 13:55:51;;;;;;;5.88;1.70;;;23.70;99.60;;;;;;2603401;54;20056;31
2022/09/05 13:58:29;;;;;;;2.20;1.70;;;23.70;99.50;;;;;;2603411;54;20149;31
2022/09/05 14:01:46;;;;;;;1.80;1.50;;;23.80;99.30;;;;;;2603034;54;20046;31
2022/09/05 14:04:57;;;;;;;5.38;2.00;;;23.80;98.90;;;;;;2603106;54;20030;31
2022/09/05 14:07:48;;;;;;;;;;;23.80;98.60;;;;;;2603375;54;20061;31
2022/09/05 14:10:44;;;;;;;6.45;2.15;;;23.70;98.50;;;;;;2603274;54;19941;31
2022/09/05 14:13:22;;;;;;;2.95;1.80;;;23.70;98.50;;;;;;2603209;54;20941;31
2022/09/05 14:15:59;;;;;;;3.45;1.77;;;23.60;98.80;;;;;;2603251;54;20937;31
2022/09/05 14:21:14;;;;;;;6.40;2.13;;;23.60;99.10;;;;;;2603124;54;20081;31
2022/09/05 14:21:28;;;;;;;4.85;1.80;;;23.60;98.60;;;;;;2602832;54;21129;31
2022/09/05 14:24:05;;;;;;;6.70;2.15;;;23.50;98.70;;;;;;2603017;54;20917;31
2022/09/05 14:26:47;;;;;;;2.13;1.80;;;23.50;99.00;;;;;;2621546;46;20037;31
2022/09/05 14:29:25;;;;;;;3.75;1.58;;;23.40;99.10;;;;;;2603093;54;20116;31
2022/09/05 14:32:39;;;;;;;2.20;1.60;;;23.30;99.20;;;;;;2602199;54;20855;31
2022/09/05 14:35:35;;;;;;;3.88;1.83;;;23.20;99.20;;;;;;2603025;54;20965;31
2022/09/05 14:38:41;;;;;;;3.40;1.80;;;23.20;98.80;;;;;;2602995;54;20929;31
2022/09/05 14:41:31;;;;;;;3.70;1.75;;;23.20;98.60;;;;;;2603019;54;21020;31
2022/09/05 14:47:01;;;;;;;4.25;1.60;;;23.10;98.90;;;;;;2603209;54;20026;31
2022/09/05 14:49:58;;;;;;;4.70;1.65;;;23.10;98.90;;;;;;2603060;54;20058;31
2022/09/05 14:52:34;;;;;;;2.50;1.90;;;23.00;99.30;;;;;;2620897;47;20022;31
2022/09/05 14:55:19;;;;;;;2.05;1.60;;;23.00;99.00;;;;;;2602706;54;20030;31
2022/09/05 14:57:55;;;;;;;3.28;1.80;;;23.00;99.20;;;;;;2602825;54;20036;31
2022/09/05 15:00:55;;;;;;;3.40;1.50;;;23.00;99.30;;;;;;2602938;54;20061;31
2022/09/05 15:03:52;;;;;;;5.90;2.10;;;23.10;99.30;;;;;;2603020;54;20023;31
2022/09/05 15:06:47;;;;;;;2.60;1.85;;;23.10;98.60;;;;;;2602887;54;20116;31